Time;durP1;ratioP1;P1;durP2;ratioP2;P2;SDS_P1;SDS_P2;PMS_P1;PMS_P2;Temp;Humidity;BMP_temperature;BMP_pressure;BME280_temperature;BME280_humidity;BME280_pressure;Samples;Min_cycle;Max_cycle;Signal;HPM_P1;HPM_P2
2020/12/01 01:28:07;;;;;;;38.00;21.47;;;;;;;2.03;94.82;96219.91;5113140;27;20863;-87
2020/12/01 01:30:35;;;;;;;41.10;20.40;;;;;;;1.96;95.35;96212.41;5112924;28;20431;-87
2020/12/01 01:33:01;;;;;;;41.80;20.90;;;;;;;1.85;95.28;96204.44;5113010;28;20432;-87
2020/12/01 01:35:28;;;;;;;36.90;20.50;;;;;;;1.79;95.89;96201.78;5113236;28;20422;-86
2020/12/01 01:37:54;;;;;;;38.97;20.30;;;;;;;1.84;96.44;96197.66;5112684;28;20451;-87
2020/12/01 01:40:23;;;;;;;35.47;20.57;;;;;;;1.85;96.37;96193.81;5127259;28;20415;-87
2020/12/01 01:42:49;;;;;;;37.40;20.27;;;;;;;1.87;96.66;96192.09;5137162;28;20420;-87
2020/12/01 01:45:31;;;;;;;33.90;20.03;;;;;;;1.79;97.23;96187.75;5137031;28;20455;-87
2020/12/01 01:47:58;;;;;;;48.17;22.40;;;;;;;1.68;97.38;96185.09;5136970;28;20507;-86
2020/12/01 01:50:24;;;;;;;38.00;20.23;;;;;;;1.71;98.48;96181.47;5116090;28;20511;-86
2020/12/01 01:52:51;;;;;;;41.37;18.90;;;;;;;1.66;98.29;96182.91;5111557;28;20825;-86
2020/12/01 01:55:22;;;;;;;33.80;19.47;;;;;;;1.72;98.58;96178.34;5112033;28;20493;-87
2020/12/01 01:57:53;;;;;;;33.93;18.27;;;;;;;1.67;98.72;96176.41;5112422;28;20507;-87
2020/12/01 02:00:40;;;;;;;43.10;20.27;;;;;;;1.74;99.03;96172.53;5112414;28;20420;-87
2020/12/01 02:03:07;;;;;;;37.77;20.53;;;;;;;1.82;98.52;96160.19;5111666;28;20407;-88
2020/12/01 02:05:33;;;;;;;32.53;18.50;;;;;;;1.82;98.87;96158.25;5111655;28;20470;-87
2020/12/01 02:08:01;;;;;;;39.20;19.97;;;;;;;1.91;98.21;96146.66;5111240;28;20503;-87
2020/12/01 02:10:28;;;;;;;32.63;17.60;;;;;;;1.96;97.59;96137.91;5111367;28;20887;-87
2020/12/01 02:13:00;;;;;;;32.00;18.50;;;;;;;1.94;97.52;96135.03;5111211;28;20444;-87
2020/12/01 02:15:27;;;;;;;36.53;18.43;;;;;;;1.90;98.03;96131.88;5111626;28;20407;-87
2020/12/01 02:17:55;;;;;;;39.70;19.33;;;;;;;1.91;97.51;96123.41;5111564;28;20801;-87
2020/12/01 02:20:22;;;;;;;32.13;17.20;;;;;;;1.87;97.72;96120.28;5111962;28;20796;-87
2020/12/01 02:22:50;;;;;;;38.43;17.90;;;;;;;1.86;98.12;96110.13;5111411;28;20482;-87
2020/12/01 02:25:20;;;;;;;34.63;18.07;;;;;;;1.85;98.47;96111.38;5111380;28;20526;-87
2020/12/01 02:27:49;;;;;;;33.53;18.13;;;;;;;1.95;97.86;96109.84;5111056;28;20574;-87
2020/12/01 02:30:16;;;;;;;36.07;19.03;;;;;;;1.88;98.47;96105.06;5111566;28;20475;-86
2020/12/01 02:32:43;;;;;;;35.30;18.77;;;;;;;1.88;98.38;96094.44;5111241;28;20460;-86
2020/12/01 02:35:10;;;;;;;33.10;17.60;;;;;;;1.89;98.13;96085.22;5110942;28;20700;-87
2020/12/01 02:37:40;;;;;;;40.90;19.03;;;;;;;1.95;98.35;96081.31;5106749;28;20433;-87
2020/12/01 02:40:08;;;;;;;39.83;19.40;;;;;;;2.01;98.09;96081.31;5097535;28;20425;-87
2020/12/01 02:42:34;;;;;;;33.30;18.70;;;;;;;1.97;98.53;96076.22;5096817;28;20432;-87
2020/12/01 02:45:01;;;;;;;35.27;18.57;;;;;;;1.98;98.17;96069.72;5097505;28;20441;-87
2020/12/01 02:47:28;;;;;;;34.10;17.43;;;;;;;2.09;98.29;96074.28;5097666;28;20575;-87
2020/12/01 02:49:54;;;;;;;34.20;17.33;;;;;;;2.01;97.46;96060.75;5098658;28;20462;-87
2020/12/01 02:52:23;;;;;;;35.00;16.13;;;;;;;1.97;98.12;96060.28;5099697;28;20407;-87
2020/12/01 02:54:50;;;;;;;34.60;18.63;;;;;;;1.99;97.95;96052.53;5100270;28;20464;-82
2020/12/01 02:57:17;;;;;;;33.93;17.23;;;;;;;2.05;97.56;96047.91;5119409;28;20524;-86
2020/12/01 02:59:43;;;;;;;29.40;15.83;;;;;;;2.11;97.79;96035.31;5099442;28;20974;-85
2020/12/01 03:02:11;;;;;;;36.27;17.57;;;;;;;2.12;97.16;96028.78;5096694;28;20543;-85
2020/12/01 03:04:37;;;;;;;32.60;18.87;;;;;;;2.13;97.47;96024.19;5097129;28;20404;-85
2020/12/01 03:07:03;;;;;;;26.13;14.90;;;;;;;2.05;97.71;96023.25;5096406;28;20499;-85
2020/12/01 03:09:30;;;;;;;33.27;15.40;;;;;;;2.09;97.42;96015.75;5097181;28;20440;-85
2020/12/01 03:11:56;;;;;;;22.67;14.63;;;;;;;2.04;98.26;96008.50;5096633;28;20977;-87
2020/12/01 03:14:24;;;;;;;31.00;14.80;;;;;;;2.15;97.86;96011.09;5096599;28;20451;-86
2020/12/01 03:16:50;;;;;;;30.00;16.50;;;;;;;2.25;97.50;96016.88;5096428;28;20510;-85
2020/12/01 03:19:19;;;;;;;33.10;17.33;;;;;;;2.17;97.29;96003.34;5096227;28;20955;-85
2020/12/01 03:21:45;;;;;;;26.20;13.63;;;;;;;2.19;97.96;96005.53;5096882;28;20449;-86
2020/12/01 03:24:12;;;;;;;32.73;15.37;;;;;;;2.10;98.47;95999.28;5096728;28;20440;-86
2020/12/01 03:26:38;;;;;;;33.73;16.77;;;;;;;2.16;98.18;96005.28;5096170;28;20489;-85
2020/12/01 03:29:05;;;;;;;30.20;15.50;;;;;;;2.15;98.39;96001.19;5113387;28;20430;-86
2020/12/01 03:31:57;;;;;;;29.00;14.70;;;;;;;2.17;98.66;95990.03;5120927;28;20423;-85
2020/12/01 03:34:24;;;;;;;30.30;15.27;;;;;;;2.10;99.12;95993.94;5121350;28;20485;-85
2020/12/01 03:36:51;;;;;;;34.13;15.13;;;;;;;2.00;99.25;95984.84;5121113;28;20467;-86
2020/12/01 03:39:17;;;;;;;26.40;14.37;;;;;;;2.03;99.69;95983.84;5110529;28;20452;-85
2020/12/01 03:41:43;;;;;;;30.87;15.40;;;;;;;2.11;100.00;95987.41;5099670;28;20443;-87
2020/12/01 03:44:10;;;;;;;34.13;16.10;;;;;;;2.04;99.71;95982.63;5099352;28;20441;-86
2020/12/01 03:46:36;;;;;;;29.37;15.80;;;;;;;2.06;99.82;95977.53;5110896;28;20495;-86
2020/12/01 03:49:02;;;;;;;27.80;14.80;;;;;;;2.05;100.00;95986.72;5096179;28;20436;-87
2020/12/01 03:51:30;;;;;;;24.73;14.57;;;;;;;2.15;100.00;95969.25;5096083;28;20514;-87
2020/12/01 03:53:56;;;;;;;31.33;16.07;;;;;;;2.08;100.00;95966.38;5096032;28;20419;-87
2020/12/01 03:56:22;;;;;;;29.10;16.20;;;;;;;2.13;100.00;95965.66;5097751;28;20431;-87
2020/12/01 03:58:49;;;;;;;28.67;13.17;;;;;;;2.15;100.00;95961.28;5120766;28;20432;-83
2020/12/01 04:01:15;;;;;;;30.43;16.23;;;;;;;2.22;100.00;95961.97;5120311;28;20488;-87
2020/12/01 04:03:42;;;;;;;31.27;14.90;;;;;;;2.19;100.00;95960.28;5120202;28;20462;-86
2020/12/01 04:06:08;;;;;;;30.83;15.20;;;;;;;2.17;100.00;95960.78;5097882;28;20501;-86
2020/12/01 04:08:35;;;;;;;33.10;15.03;;;;;;;2.11;100.00;95954.75;5096209;28;20443;-88
2020/12/01 04:11:03;;;;;;;26.07;14.23;;;;;;;2.20;100.00;95961.72;5096010;28;20535;-85
2020/12/01 04:13:29;;;;;;;29.80;16.00;;;;;;;2.19;100.00;95958.34;5096167;28;20551;-83
2020/12/01 04:15:56;;;;;;;31.77;15.20;;;;;;;2.20;100.00;95954.47;5095744;28;21092;-84
2020/12/01 04:18:22;;;;;;;27.20;15.97;;;;;;;2.19;100.00;95950.38;5095835;28;20440;-86
2020/12/01 04:20:48;;;;;;;28.83;15.07;;;;;;;2.17;100.00;95944.81;5095583;28;20943;-86
2020/12/01 04:23:15;;;;;;;48.33;17.13;;;;;;;2.25;100.00;95948.41;5095846;28;20437;-86
2020/12/01 04:25:42;;;;;;;31.80;15.77;;;;;;;2.09;100.00;95941.97;5095459;28;20562;-86
2020/12/01 04:28:09;;;;;;;29.83;16.30;;;;;;;2.14;100.00;95945.78;5098783;28;20476;-86
2020/12/01 04:30:35;;;;;;;28.13;14.00;;;;;;;2.28;100.00;95949.34;5099978;28;20421;-82
2020/12/01 04:33:01;;;;;;;31.60;15.50;;;;;;;2.13;100.00;95947.72;5099447;28;20411;-83
2020/12/01 04:35:28;;;;;;;28.67;12.77;;;;;;;2.15;100.00;95949.91;5097947;28;20433;-85
2020/12/01 04:37:58;;;;;;;31.97;16.43;;;;;;;2.30;100.00;95942.31;5095729;28;20432;-85
2020/12/01 04:40:30;;;;;;;25.33;14.23;;;;;;;2.32;100.00;95939.16;5105482;28;20509;-84
2020/12/01 04:43:06;;;;;;;29.07;15.00;;;;;;;2.32;100.00;95937.19;5119971;28;20405;-88
2020/12/01 04:45:34;;;;;;;28.87;14.67;;;;;;;2.22;100.00;95930.03;5109515;28;20827;-84
2020/12/01 04:48:04;;;;;;;30.90;15.00;;;;;;;2.23;100.00;95934.84;5097939;28;20462;-85
2020/12/01 04:50:34;;;;;;;30.47;14.90;;;;;;;2.26;100.00;95935.78;5116406;28;20415;-85
2020/12/01 04:53:45;;;;;;;34.93;16.33;;;;;;;2.33;100.00;95933.31;5119329;28;20409;-86
2020/12/01 04:56:52;;;;;;;26.83;14.10;;;;;;;2.23;100.00;95926.13;5119599;28;20439;-86
2020/12/01 04:59:39;;;;;;;27.00;14.17;;;;;;;2.29;100.00;95924.88;5104805;28;20417;-83
2020/12/01 05:02:33;;;;;;;28.93;13.90;;;;;;;2.29;100.00;95918.84;5098579;28;20443;-85
2020/12/01 05:05:17;;;;;;;27.83;14.13;;;;;;;2.41;100.00;95912.22;5097302;28;20411;-85
2020/12/01 05:08:03;;;;;;;29.37;14.67;;;;;;;2.41;100.00;95907.59;5099055;28;20560;-85
2020/12/01 05:10:35;;;;;;;28.67;14.60;;;;;;;2.43;100.00;95912.44;5095693;28;20488;-85
2020/12/01 05:13:16;;;;;;;31.13;13.80;;;;;;;2.34;100.00;95908.16;5094926;28;20396;-86
2020/12/01 05:15:48;;;;;;;33.53;14.47;;;;;;;2.32;100.00;95912.53;5094268;28;20514;-86
2020/12/01 05:18:18;;;;;;;27.67;14.70;;;;;;;2.32;100.00;95907.91;5094408;28;20921;-86
2020/12/01 05:20:49;;;;;;;29.80;14.73;;;;;;;2.37;100.00;95909.09;5094481;28;20519;-87
2020/12/01 05:23:18;;;;;;;28.60;14.20;;;;;;;2.50;100.00;95911.91;5094437;28;20421;-88
2020/12/01 05:25:44;;;;;;;24.77;13.83;;;;;;;2.47;100.00;95913.63;5094837;28;20452;-87
2020/12/01 05:28:13;;;;;;;34.97;16.90;;;;;;;2.44;100.00;95909.28;5098007;28;20839;-88
2020/12/01 05:30:41;;;;;;;26.10;14.30;;;;;;;2.43;100.00;95912.44;5096750;28;20515;-88
2020/12/01 05:33:27;;;;;;;35.83;17.63;;;;;;;2.42;100.00;95911.00;5099588;28;20470;-87
2020/12/01 05:36:00;;;;;;;31.43;15.67;;;;;;;2.47;100.00;95902.25;5098032;28;21002;-87
2020/12/01 05:38:27;;;;;;;29.67;16.03;;;;;;;2.50;100.00;95907.31;5098022;28;20811;-87
2020/12/01 05:40:56;;;;;;;27.97;14.40;;;;;;;2.47;100.00;95902.25;5094941;28;20900;-87
2020/12/01 05:43:31;;;;;;;29.10;14.67;;;;;;;2.60;100.00;95919.06;5105973;28;20475;-87
2020/12/01 05:46:16;;;;;;;29.17;15.97;;;;;;;2.49;100.00;95915.78;5094851;28;20467;-87
2020/12/01 05:49:01;;;;;;;29.10;15.90;;;;;;;2.48;100.00;95920.38;5094964;28;20859;-87
2020/12/01 05:51:35;;;;;;;34.83;16.77;;;;;;;2.43;100.00;95918.50;5094445;28;20396;-88
2020/12/01 05:54:02;;;;;;;31.57;15.40;;;;;;;2.47;100.00;95924.28;5095057;28;20413;-87
2020/12/01 05:56:28;;;;;;;30.63;15.93;;;;;;;2.46;100.00;95917.50;5095041;28;20415;-86
2020/12/01 05:58:59;;;;;;;33.80;15.20;;;;;;;2.52;100.00;95925.44;5094893;28;20925;-87
2020/12/01 06:01:26;;;;;;;34.33;15.20;;;;;;;2.51;100.00;95914.06;5094640;28;20425;-87
2020/12/01 06:04:05;;;;;;;30.07;15.97;;;;;;;2.51;100.00;95921.31;5095394;28;20440;-86
2020/12/01 06:06:43;;;;;;;28.70;15.17;;;;;;;2.58;100.00;95918.84;5095086;28;20452;-87
2020/12/01 06:09:25;;;;;;;25.33;13.97;;;;;;;2.48;100.00;95915.06;5096051;28;20518;-84
2020/12/01 06:11:58;;;;;;;29.13;15.43;;;;;;;2.57;100.00;95906.03;5095482;28;20387;-84
2020/12/01 06:14:32;;;;;;;31.07;16.50;;;;;;;2.56;100.00;95915.25;5098954;28;20399;-85
2020/12/01 06:17:04;;;;;;;29.90;15.47;;;;;;;2.53;100.00;95918.91;5099292;28;20435;-84
2020/12/01 06:19:37;;;;;;;39.37;16.37;;;;;;;2.54;100.00;95912.34;5098982;28;20423;-85
2020/12/01 06:22:31;;;;;;;28.23;15.73;;;;;;;2.61;100.00;95919.78;5098622;28;20411;-89
2020/12/01 06:25:32;;;;;;;29.83;15.20;;;;;;;2.63;100.00;95910.06;5098824;28;20436;-87
2020/12/01 06:28:20;;;;;;;29.00;14.97;;;;;;;2.72;100.00;95911.72;5098033;28;20484;-88
2020/12/01 06:31:08;;;;;;;32.50;15.50;;;;;;;2.88;100.00;95908.16;5098550;28;20415;-87
2020/12/01 06:34:08;;;;;;;34.83;17.13;;;;;;;3.26;100.00;95916.97;5098192;28;20437;-87
2020/12/01 06:37:14;;;;;;;29.27;14.27;;;;;;;3.44;99.31;95913.63;5098964;28;20460;-87
2020/12/01 06:39:56;;;;;;;31.77;16.57;;;;;;;3.38;97.98;95910.31;5098613;28;20417;-88
2020/12/01 06:42:27;;;;;;;27.23;13.67;;;;;;;3.30;98.05;95904.09;5099531;28;20413;-88
2020/12/01 06:44:58;;;;;;;31.53;14.13;;;;;;;3.36;98.04;95902.06;5098972;28;20436;-88
2020/12/01 06:47:29;;;;;;;24.00;13.23;;;;;;;3.47;97.66;95895.88;5100649;28;20514;-88
2020/12/01 06:49:58;;;;;;;32.00;15.20;;;;;;;3.35;97.27;95905.25;5099867;28;20919;-86
2020/12/01 06:52:26;;;;;;;30.20;14.10;;;;;;;3.19;97.65;95901.56;5098839;28;20433;-87
2020/12/01 06:54:55;;;;;;;25.17;13.27;;;;;;;3.01;98.66;95904.88;5100003;28;20425;-90
2020/12/01 06:57:31;;;;;;;38.70;17.30;;;;;;;2.95;99.60;95912.19;5100084;28;20435;-89
2020/12/01 06:59:58;;;;;;;26.10;14.33;;;;;;;2.86;99.62;95907.22;5099241;28;20447;-89
2020/12/01 07:02:28;;;;;;;29.80;14.90;;;;;;;2.82;100.00;95906.78;5099904;28;20917;-89
2020/12/01 07:05:12;;;;;;;28.40;14.03;;;;;;;2.86;100.00;95909.88;5100189;28;20499;-88
2020/12/01 07:07:44;;;;;;;22.43;13.47;;;;;;;2.88;100.00;95918.09;5099627;28;20515;-91
2020/12/01 07:10:21;;;;;;;23.23;13.10;;;;;;;2.82;100.00;95918.13;5101250;28;20407;-92
2020/12/01 07:12:54;;;;;;;25.50;13.07;;;;;;;2.80;100.00;95898.56;5108073;28;20407;-92
2020/12/01 07:15:30;;;;;;;25.60;13.23;;;;;;;2.81;100.00;95903.41;5100382;28;20429;-92
2020/12/01 07:18:03;;;;;;;26.80;12.63;;;;;;;2.77;100.00;95905.59;5102533;28;20411;-90
2020/12/01 07:20:39;;;;;;;25.83;13.87;;;;;;;2.76;100.00;95912.16;5105363;28;20411;-92
2020/12/01 07:23:21;;;;;;;30.53;13.83;;;;;;;2.71;100.00;95907.59;5112186;28;20494;-90
2020/12/01 07:25:58;;;;;;;20.60;11.67;;;;;;;2.76;100.00;95909.47;5109477;28;20778;-90
2020/12/01 07:28:32;;;;;;;23.00;12.47;;;;;;;2.76;100.00;95908.78;5115921;28;20447;-89
2020/12/01 07:31:02;;;;;;;27.10;14.13;;;;;;;2.76;100.00;95912.16;5115837;28;20802;-89
2020/12/01 07:33:31;;;;;;;25.90;12.97;;;;;;;2.79;100.00;95908.47;5115474;28;20397;-90
2020/12/01 07:36:12;;;;;;;23.93;12.70;;;;;;;2.79;100.00;95911.16;5103283;28;20419;-91
2020/12/01 07:38:42;;;;;;;24.47;12.93;;;;;;;2.70;100.00;95911.47;5101925;28;20413;-90
2020/12/01 07:41:23;;;;;;;20.60;12.07;;;;;;;2.72;100.00;95915.06;5099287;28;20436;-92
2020/12/01 07:44:01;;;;;;;24.63;12.37;;;;;;;2.75;100.00;95910.00;5098230;28;20429;-91
2020/12/01 07:46:28;;;;;;;22.73;12.30;;;;;;;2.72;100.00;95911.00;5098017;28;20460;-88
2020/12/01 07:48:59;;;;;;;23.03;12.50;;;;;;;2.70;100.00;95909.53;5101194;28;20472;-88
2020/12/01 07:51:27;;;;;;;21.17;11.83;;;;;;;2.78;100.00;95911.66;5108148;28;20946;-89
2020/12/01 07:53:56;;;;;;;20.80;12.20;;;;;;;2.78;100.00;95909.00;5106686;28;20396;-89
2020/12/01 07:56:30;;;;;;;33.00;12.67;;;;;;;2.80;100.00;95906.53;5119086;28;20455;-88
2020/12/01 07:59:07;;;;;;;21.00;11.73;;;;;;;2.85;100.00;95917.13;5119695;28;20511;-87
2020/12/01 08:01:33;;;;;;;21.80;12.37;;;;;;;2.83;100.00;95919.59;5119231;28;20415;-88
2020/12/01 08:04:11;;;;;;;22.80;12.30;;;;;;;2.89;100.00;95924.84;5113249;28;20932;-89
2020/12/01 08:06:38;;;;;;;22.43;11.07;;;;;;;2.82;100.00;95925.44;5099859;28;20427;-91
2020/12/01 08:09:12;;;;;;;26.23;11.47;;;;;;;2.82;100.00;95918.13;5099340;28;20408;-90
2020/12/01 08:11:42;;;;;;;27.10;13.23;;;;;;;2.77;100.00;95918.94;5100315;28;20443;-90
2020/12/01 08:14:10;;;;;;;26.87;13.50;;;;;;;2.79;100.00;95919.13;5099545;28;20482;-91
2020/12/01 08:16:37;;;;;;;26.63;13.10;;;;;;;2.75;100.00;95920.66;5099209;28;20431;-90
2020/12/01 08:19:05;;;;;;;22.57;11.60;;;;;;;2.84;100.00;95929.03;5101445;28;20444;-90
2020/12/01 08:21:35;;;;;;;30.73;13.30;;;;;;;2.95;100.00;95928.19;5098727;28;20445;-91
2020/12/01 08:24:05;;;;;;;29.07;15.43;;;;;;;3.02;100.00;95928.38;5099963;28;20402;-91
2020/12/01 08:26:35;;;;;;;20.63;11.40;;;;;;;2.96;100.00;95932.31;5097244;28;20938;-92
2020/12/01 08:29:06;;;;;;;22.83;11.90;;;;;;;3.02;100.00;95928.38;5101716;28;20415;-91
2020/12/01 08:31:45;;;;;;;22.83;12.00;;;;;;;2.98;100.00;95933.25;5099323;28;20445;-91
2020/12/01 08:34:32;;;;;;;37.50;21.07;;;;;;;2.99;100.00;95924.03;5098632;28;20412;-91
2020/12/01 08:37:09;;;;;;;23.33;10.70;;;;;;;2.89;100.00;95924.84;5099048;28;20456;-89
2020/12/01 08:39:46;;;;;;;20.03;11.63;;;;;;;2.84;100.00;95937.03;5097782;28;20413;-90
2020/12/01 08:42:24;;;;;;;21.17;11.80;;;;;;;2.92;100.00;95929.19;5098153;28;20843;-90
2020/12/01 08:45:01;;;;;;;22.63;12.30;;;;;;;2.96;100.00;95930.38;5104645;28;20416;-90
2020/12/01 08:47:30;;;;;;;20.37;11.30;;;;;;;2.85;100.00;95929.75;5100696;28;20479;-90
2020/12/01 08:49:57;;;;;;;26.00;11.37;;;;;;;2.80;100.00;95927.84;5098389;28;20423;-90
2020/12/01 08:52:36;;;;;;;19.00;11.63;;;;;;;2.87;100.00;95940.63;5097471;28;20407;-90
2020/12/01 08:55:18;;;;;;;20.67;11.13;;;;;;;2.87;100.00;95935.31;5099342;28;20826;-91
2020/12/01 08:57:45;;;;;;;19.47;11.47;;;;;;;3.02;100.00;95941.69;5100264;28;20510;-91
2020/12/01 09:00:14;;;;;;;21.10;11.97;;;;;;;2.91;100.00;95946.41;5099226;28;20433;-88
2020/12/01 09:02:43;;;;;;;17.90;9.90;;;;;;;2.87;100.00;95932.63;5097285;28;20427;-88
2020/12/01 09:05:22;;;;;;;23.67;11.60;;;;;;;2.85;100.00;95943.78;5096739;28;20513;-88
2020/12/01 09:07:54;;;;;;;20.20;11.00;;;;;;;2.93;100.00;95942.03;5096144;28;20502;-88
2020/12/01 09:10:28;;;;;;;18.60;10.80;;;;;;;2.92;100.00;95943.25;5096725;28;20436;-88
2020/12/01 09:13:08;;;;;;;15.80;9.77;;;;;;;2.91;100.00;95949.06;5096459;28;20427;-88
2020/12/01 09:15:42;;;;;;;20.80;10.50;;;;;;;2.92;100.00;95945.91;5101750;28;20427;-89
2020/12/01 09:18:34;;;;;;;20.10;9.83;;;;;;;2.94;100.00;95942.75;5098347;28;20842;-87
2020/12/01 09:21:51;;;;;;;13.83;8.87;;;;;;;2.97;100.00;95939.09;5110061;28;20411;-88
2020/12/01 09:23:59;;;;;;;18.70;9.13;;;;;;;3.06;100.00;95944.09;5114373;28;20424;-87
2020/12/01 09:26:26;;;;;;;33.20;11.07;;;;;;;3.08;100.00;95938.97;5118355;28;20457;-88
2020/12/01 09:28:54;;;;;;;15.20;9.80;;;;;;;3.18;100.00;95940.81;5100814;28;20464;-87
2020/12/01 09:31:22;;;;;;;16.87;11.23;;;;;;;3.25;100.00;95950.19;5088042;28;20487;-91
2020/12/01 09:33:52;;;;;;;14.30;8.30;;;;;;;3.28;99.69;95949.19;5082127;28;20452;-89
2020/12/01 09:36:20;;;;;;;14.33;8.33;;;;;;;3.28;99.44;95956.47;5084818;28;20526;-89
2020/12/01 09:38:46;;;;;;;16.20;8.30;;;;;;;3.18;100.00;95962.13;5085863;28;20511;-88
2020/12/01 09:41:14;;;;;;;14.43;8.60;;;;;;;3.16;100.00;95959.22;5079015;28;20456;-88
2020/12/01 09:43:44;;;;;;;17.13;8.77;;;;;;;3.18;100.00;95964.78;5077166;28;20418;-90
2020/12/01 09:46:12;;;;;;;15.17;7.47;;;;;;;3.13;100.00;95954.19;5077028;28;20440;-89
2020/12/01 09:48:41;;;;;;;16.53;7.87;;;;;;;3.16;100.00;95959.22;5079660;28;20487;-89
2020/12/01 09:51:09;;;;;;;11.87;7.50;;;;;;;3.13;100.00;95965.56;5080326;28;20420;-89
2020/12/01 09:53:50;;;;;;;17.07;8.73;;;;;;;3.12;100.00;95964.13;5081763;28;20850;-88
2020/12/01 09:56:33;;;;;;;12.50;7.80;;;;;;;3.19;100.00;95960.91;5080313;28;20440;-88
2020/12/01 10:07:43;;;;;;;15.27;8.10;;;;;;;3.13;99.72;95959.53;5082948;28;20936;-85
2020/12/01 10:10:24;;;;;;;14.80;7.80;;;;;;;3.07;100.00;95969.53;5082030;28;20430;-86
2020/12/01 10:12:58;;;;;;;13.57;8.40;;;;;;;3.13;100.00;95956.84;5081475;28;20408;-85
2020/12/01 10:18:33;;;;;;;17.10;8.03;;;;;;;3.06;100.00;95958.13;5080199;28;20420;-86
2020/12/01 10:32:33;;;;;;;16.97;9.77;;;;;;;2.99;100.00;95955.28;5085002;28;20492;-90
2020/12/01 10:35:11;;;;;;;16.10;9.40;;;;;;;3.01;100.00;95956.22;5082506;28;20841;-91
2020/12/01 10:37:38;;;;;;;13.13;8.47;;;;;;;2.98;100.00;95951.16;5082745;28;20904;-90
2020/12/01 10:40:06;;;;;;;13.47;8.90;;;;;;;3.03;100.00;95958.41;5098030;28;20456;-88
2020/12/01 10:42:32;;;;;;;16.63;8.53;;;;;;;2.97;100.00;95958.47;5101144;28;20433;-90
2020/12/01 10:44:59;;;;;;;15.73;8.50;;;;;;;3.01;100.00;95961.56;5100551;28;20412;-88
2020/12/01 10:47:25;;;;;;;14.13;8.80;;;;;;;3.13;100.00;95960.22;5088747;28;20447;-89
2020/12/01 10:49:55;;;;;;;16.87;9.30;;;;;;;3.16;100.00;95961.88;5081648;28;20499;-89
2020/12/01 10:52:22;;;;;;;13.77;8.87;;;;;;;3.19;100.00;95963.59;5084714;28;20483;-90
2020/12/01 10:54:48;;;;;;;11.40;7.70;;;;;;;3.20;100.00;95972.28;5082046;28;20513;-89
2020/12/01 10:57:15;;;;;;;14.00;8.47;;;;;;;3.28;100.00;95969.78;5081228;28;20431;-90
2020/12/01 10:59:42;;;;;;;10.57;7.47;;;;;;;3.26;100.00;95967.59;5085517;28;20888;-89
2020/12/01 11:02:08;;;;;;;15.73;8.50;;;;;;;3.27;100.00;95968.34;5079991;28;20409;-90
2020/12/01 11:04:36;;;;;;;11.50;8.70;;;;;;;3.22;100.00;95967.19;5088499;28;20414;-90
2020/12/01 11:07:02;;;;;;;12.70;8.80;;;;;;;3.26;100.00;95974.91;5113538;28;20445;-90
2020/12/01 11:09:29;;;;;;;13.23;8.43;;;;;;;3.26;100.00;95977.56;5120763;28;20504;-90
2020/12/01 11:11:55;;;;;;;13.93;8.00;;;;;;;3.19;100.00;95974.25;5120792;28;20480;-88
2020/12/01 11:14:22;;;;;;;12.13;8.40;;;;;;;3.16;100.00;95972.56;5118511;28;20422;-89
2020/12/01 11:16:49;;;;;;;10.53;7.13;;;;;;;3.19;100.00;95973.53;5112758;28;20891;-89
2020/12/01 11:19:15;;;;;;;11.33;7.67;;;;;;;3.20;99.97;95973.00;5108903;28;20474;-89
2020/12/01 11:21:42;;;;;;;12.93;7.97;;;;;;;3.26;99.78;95972.94;5102151;28;20446;-89
2020/12/01 11:24:08;;;;;;;12.57;7.40;;;;;;;3.21;99.96;95977.13;5106651;28;20441;-90
2020/12/01 11:26:35;;;;;;;12.57;8.60;;;;;;;3.26;100.00;95977.56;5112395;28;20570;-89
2020/12/01 11:29:01;;;;;;;12.60;8.00;;;;;;;3.22;100.00;95969.84;5099692;28;20515;-89
2020/12/01 11:31:32;;;;;;;13.63;8.80;;;;;;;3.21;100.00;95971.06;5100830;28;20423;-89
2020/12/01 11:34:01;;;;;;;13.13;8.63;;;;;;;3.20;99.99;95972.28;5102656;28;20895;-90
2020/12/01 11:36:28;;;;;;;13.10;8.80;;;;;;;3.29;100.00;95969.28;5102979;28;20495;-89
2020/12/01 11:38:54;;;;;;;13.20;8.23;;;;;;;3.24;99.62;95970.78;5102667;28;20444;-88
2020/12/01 11:41:21;;;;;;;12.43;8.80;;;;;;;3.27;99.75;95976.34;5099960;28;20440;-88
2020/12/01 11:43:48;;;;;;;10.30;8.13;;;;;;;3.25;99.99;95979.50;5100939;28;20518;-88
2020/12/01 11:46:14;;;;;;;13.27;7.73;;;;;;;3.24;99.93;95980.72;5103064;28;20431;-89
2020/12/01 11:48:41;;;;;;;12.37;8.20;;;;;;;3.19;100.00;95979.56;5100595;28;20470;-90
2020/12/01 11:51:08;;;;;;;11.57;7.70;;;;;;;3.19;100.00;95978.84;5101612;28;20402;-89
2020/12/01 11:53:34;;;;;;;13.10;8.53;;;;;;;3.32;100.00;95976.28;5101479;28;20476;-90
2020/12/01 11:56:01;;;;;;;13.50;8.93;;;;;;;3.34;100.00;95976.50;5101402;28;20453;-85
2020/12/01 11:58:27;;;;;;;11.90;8.37;;;;;;;3.38;99.47;95979.63;5099125;28;20865;-85
2020/12/01 12:00:54;;;;;;;13.50;8.00;;;;;;;3.26;99.89;95988.94;5099786;28;20439;-87
2020/12/01 12:03:21;;;;;;;13.47;8.67;;;;;;;3.26;100.00;95990.91;5099943;28;20829;-86
2020/12/01 12:05:48;;;;;;;11.90;7.97;;;;;;;3.31;99.72;95987.44;5099876;28;20448;-91
2020/12/01 12:08:14;;;;;;;14.43;8.90;;;;;;;3.29;99.92;95981.91;5104152;28;20884;-90
2020/12/01 12:10:41;;;;;;;11.97;8.60;;;;;;;3.38;99.76;95992.97;5102236;28;20957;-90
2020/12/01 12:13:07;;;;;;;12.63;8.43;;;;;;;3.29;100.00;95993.25;5103529;28;20441;-88
2020/12/01 12:15:34;;;;;;;12.17;7.90;;;;;;;3.29;100.00;95992.56;5101668;28;20473;-89
2020/12/01 12:18:00;;;;;;;11.33;7.70;;;;;;;3.26;100.00;95985.56;5100320;28;20418;-90
2020/12/01 12:20:27;;;;;;;11.93;8.87;;;;;;;3.28;100.00;95991.84;5098318;28;20824;-88
2020/12/01 12:22:54;;;;;;;11.07;8.20;;;;;;;3.23;100.00;95989.94;5100109;28;20510;-89
2020/12/01 12:25:20;;;;;;;10.90;7.57;;;;;;;3.29;100.00;95981.91;5101100;28;20895;-90
2020/12/01 12:27:47;;;;;;;14.00;8.53;;;;;;;3.30;100.00;95978.00;5100311;28;20476;-91
2020/12/01 12:30:13;;;;;;;12.73;8.00;;;;;;;3.29;100.00;95979.25;5101047;28;20415;-89
2020/12/01 12:32:40;;;;;;;12.00;6.87;;;;;;;3.29;100.00;95973.91;5100470;28;20765;-87
2020/12/01 12:35:07;;;;;;;19.53;8.70;;;;;;;3.28;100.00;95977.78;5097682;28;20473;-88
2020/12/01 12:37:34;;;;;;;11.93;7.37;;;;;;;3.31;100.00;95974.84;5098409;28;20460;-89
2020/12/01 12:40:01;;;;;;;16.20;9.70;;;;;;;3.37;100.00;95974.78;5098866;28;20435;-90
2020/12/01 12:42:28;;;;;;;12.67;7.27;;;;;;;3.35;100.00;95969.97;5098662;28;20447;-90
2020/12/01 12:44:54;;;;;;;11.43;7.53;;;;;;;3.33;100.00;95974.31;5101544;28;20399;-91
2020/12/01 12:47:21;;;;;;;15.13;9.37;;;;;;;3.34;100.00;95973.84;5099797;28;20472;-89
2020/12/01 12:49:47;;;;;;;14.00;8.07;;;;;;;3.37;100.00;95974.78;5099928;28;20784;-89
2020/12/01 12:52:14;;;;;;;19.63;8.43;;;;;;;3.35;100.00;95964.63;5098427;28;20447;-92
2020/12/01 12:54:41;;;;;;;12.03;7.30;;;;;;;3.34;100.00;95979.19;5101953;28;20468;-91
2020/12/01 12:57:13;;;;;;;17.53;9.90;;;;;;;3.40;100.00;95971.13;5100746;28;20498;-89
2020/12/01 12:59:39;;;;;;;16.20;8.47;;;;;;;3.37;100.00;95970.16;5099125;28;20425;-89
2020/12/01 13:02:06;;;;;;;14.57;9.30;;;;;;;3.35;100.00;95979.91;5099421;28;20813;-89
2020/12/01 13:04:33;;;;;;;13.27;8.87;;;;;;;3.31;100.00;95980.19;5098770;28;20537;-89
2020/12/01 13:07:00;;;;;;;16.73;10.60;;;;;;;3.42;100.00;95979.31;5099065;28;20437;-91
2020/12/01 13:09:26;;;;;;;16.10;9.83;;;;;;;3.40;100.00;95981.78;5099125;28;20482;-90
2020/12/01 13:11:53;;;;;;;25.60;10.17;;;;;;;3.36;100.00;95984.72;5099088;28;20475;-91
2020/12/01 13:14:24;;;;;;;14.67;9.97;;;;;;;3.43;100.00;95986.84;5097517;28;20913;-90
2020/12/01 13:16:51;;;;;;;18.70;9.47;;;;;;;3.51;100.00;95982.38;5098228;28;20452;-88
2020/12/01 13:19:18;;;;;;;13.30;9.77;;;;;;;3.50;100.00;95975.59;5098769;28;20415;-89
2020/12/01 13:21:45;;;;;;;15.50;10.20;;;;;;;3.46;100.00;95979.78;5101498;28;20415;-87
2020/12/01 13:24:11;;;;;;;17.20;9.83;;;;;;;3.43;100.00;95986.09;5099907;28;20797;-89
2020/12/01 13:26:38;;;;;;;20.10;11.97;;;;;;;3.53;100.00;95979.22;5105784;28;20482;-88
2020/12/01 13:29:05;;;;;;;25.20;11.00;;;;;;;3.47;100.00;95989.94;5104120;28;20488;-89